Time;durP1;ratioP1;P1;durP2;ratioP2;P2;SDS_P1;SDS_P2;PMS_P1;PMS_P2;Temp;Humidity;BMP_temperature;BMP_pressure;BME280_temperature;BME280_humidity;BME280_pressure;Samples;Min_cycle;Max_cycle;Signal;HPM_P1;HPM_P2
2023/09/21 00:01:57;;;;;;;19.67;11.65;;;;;;;;;;5015787;28;20046;-77
2023/09/21 00:04:42;;;;;;;22.98;12.13;;;;;;;;;;5015781;28;20053;-77
2023/09/21 00:07:28;;;;;;;21.30;12.30;;;;;;;;;;5022004;28;20046;-77
2023/09/21 00:10:13;;;;;;;20.60;11.55;;;;;;;;;;5015396;28;20046;-77
2023/09/21 00:13:00;;;;;;;21.02;12.30;;;;;;;;;;5015518;28;20038;-76
2023/09/21 00:15:45;;;;;;;21.20;12.98;;;;;;;;;;5022038;28;20491;-76
2023/09/21 00:18:30;;;;;;;19.23;11.88;;;;;;;;;;5015300;28;20034;-76
2023/09/21 00:21:16;;;;;;;18.63;11.27;;;;;;;;;;5015241;28;20050;-78
2023/09/21 00:24:15;;;;;;;17.67;11.68;;;;;;;;;;5014762;28;20407;-76
2023/09/21 00:27:01;;;;;;;19.52;11.68;;;;;;;;;;5015216;28;20391;-77
2023/09/21 00:29:49;;;;;;;26.73;12.77;;;;;;;;;;5015337;28;20041;-78
2023/09/21 00:32:37;;;;;;;16.00;11.45;;;;;;;;;;5021949;28;20427;-77
2023/09/21 00:35:23;;;;;;;17.55;11.40;;;;;;;;;;5014766;28;20042;-76
2023/09/21 00:38:10;;;;;;;24.33;11.55;;;;;;;;;;5020924;28;20038;-76
2023/09/21 00:41:00;;;;;;;18.95;11.02;;;;;;;;;;5020618;28;20050;-76
2023/09/21 00:43:45;;;;;;;19.60;11.70;;;;;;;;;;5014003;28;20034;-77
2023/09/21 00:46:34;;;;;;;22.00;12.80;;;;;;;;;;5021008;28;20053;-77
2023/09/21 00:49:20;;;;;;;20.55;12.48;;;;;;;;;;5020180;28;20068;-76
2023/09/21 00:52:11;;;;;;;24.65;12.02;;;;;;;;;;5015260;28;20049;-76
2023/09/21 00:54:57;;;;;;;16.80;11.80;;;;;;;;;;5014573;28;20483;-76
2023/09/21 00:57:43;;;;;;;20.00;11.60;;;;;;;;;;5020436;28;20038;-77
2023/09/21 01:00:31;;;;;;;24.38;12.27;;;;;;;;;;5021032;28;20042;-77
2023/09/21 01:03:17;;;;;;;20.55;12.18;;;;;;;;;;5020919;28;20041;-77
2023/09/21 01:06:02;;;;;;;23.13;12.68;;;;;;;;;;5014841;28;20472;-77
2023/09/21 01:08:48;;;;;;;23.33;11.98;;;;;;;;;;5014843;28;20050;-77
2023/09/21 01:11:37;;;;;;;22.50;12.73;;;;;;;;;;5014431;28;20042;-77
2023/09/21 01:14:22;;;;;;;19.55;11.90;;;;;;;;;;5020517;28;20395;-77
2023/09/21 01:17:09;;;;;;;19.63;13.00;;;;;;;;;;5014169;28;20046;-77
2023/09/21 01:19:54;;;;;;;17.40;11.68;;;;;;;;;;5020022;28;20037;-77
2023/09/21 01:22:44;;;;;;;21.23;11.90;;;;;;;;;;5014014;28;20511;-77
2023/09/21 01:25:29;;;;;;;21.90;12.45;;;;;;;;;;5014313;28;20479;-77
2023/09/21 01:28:22;;;;;;;18.38;11.40;;;;;;;;;;5014970;28;20054;-77
2023/09/21 01:31:09;;;;;;;22.33;11.98;;;;;;;;;;5014180;28;20479;-77
2023/09/21 01:33:58;;;;;;;17.45;12.00;;;;;;;;;;5014222;28;20162;-77
2023/09/21 01:36:44;;;;;;;20.02;12.40;;;;;;;;;;5014301;28;20054;-76
2023/09/21 01:39:29;;;;;;;24.70;11.88;;;;;;;;;;5014479;28;20034;-76
2023/09/21 01:42:15;;;;;;;19.25;12.70;;;;;;;;;;5014750;28;20045;-76
2023/09/21 01:45:00;;;;;;;19.08;11.98;;;;;;;;;;5014039;28;20050;-76
2023/09/21 01:47:46;;;;;;;19.42;12.90;;;;;;;;;;5019996;28;20053;-76
2023/09/21 01:50:33;;;;;;;20.88;11.80;;;;;;;;;;5019727;28;20046;-76
2023/09/21 01:53:21;;;;;;;19.45;12.43;;;;;;;;;;5014467;28;20046;-76
2023/09/21 01:56:07;;;;;;;15.60;12.15;;;;;;;;;;5016955;28;20042;-76
2023/09/21 01:58:52;;;;;;;17.63;11.57;;;;;;;;;;5023593;28;20053;-77
2023/09/21 02:01:39;;;;;;;20.20;12.82;;;;;;;;;;5023947;28;20415;-77
2023/09/21 02:04:24;;;;;;;24.58;12.60;;;;;;;;;;5017989;28;20042;-76
2023/09/21 02:07:11;;;;;;;21.02;12.45;;;;;;;;;;5017791;28;20046;-76
2023/09/21 02:09:56;;;;;;;17.92;12.15;;;;;;;;;;5018059;28;20054;-76
2023/09/21 02:12:55;;;;;;;18.98;11.63;;;;;;;;;;5017685;28;20038;-77
2023/09/21 02:15:41;;;;;;;20.00;12.35;;;;;;;;;;5024344;28;20041;-77
2023/09/21 02:18:27;;;;;;;20.30;11.80;;;;;;;;;;5017676;28;20495;-76
2023/09/21 02:21:14;;;;;;;17.45;11.63;;;;;;;;;;5017531;28;20045;-77
2023/09/21 02:24:00;;;;;;;24.48;13.13;;;;;;;;;;5017296;28;20050;-78
2023/09/21 02:26:48;;;;;;;16.92;11.73;;;;;;;;;;5023034;28;20038;-77
2023/09/21 02:29:34;;;;;;;23.60;11.80;;;;;;;;;;5023596;28;20050;-77
2023/09/21 02:32:19;;;;;;;28.27;13.10;;;;;;;;;;5017644;28;20391;-77
2023/09/21 02:35:08;;;;;;;22.55;11.60;;;;;;;;;;5017456;28;20037;-77
2023/09/21 02:37:56;;;;;;;22.85;13.00;;;;;;;;;;5022836;28;20403;-76
2023/09/21 02:40:42;;;;;;;19.17;11.85;;;;;;;;;;5022937;28;20050;-77
2023/09/21 02:43:29;;;;;;;21.17;11.73;;;;;;;;;;5023110;28;20054;-77
2023/09/21 02:46:14;;;;;;;18.30;11.70;;;;;;;;;;5022984;28;20050;-77
2023/09/21 02:49:00;;;;;;;23.35;12.45;;;;;;;;;;5023141;28;20042;-77
2023/09/21 02:51:47;;;;;;;18.15;11.80;;;;;;;;;;5022745;28;20045;-77
2023/09/21 02:54:33;;;;;;;23.17;12.15;;;;;;;;;;5022558;28;20042;-77
2023/09/21 02:57:18;;;;;;;16.17;11.50;;;;;;;;;;5022786;28;20038;-77
2023/09/21 03:00:10;;;;;;;17.75;11.43;;;;;;;;;;5017115;28;20042;-77
2023/09/21 03:02:57;;;;;;;21.85;11.98;;;;;;;;;;5023294;28;20053;-77
2023/09/21 03:05:47;;;;;;;19.73;12.40;;;;;;;;;;5022407;28;20037;-77
2023/09/21 03:08:33;;;;;;;27.27;11.70;;;;;;;;;;5022256;28;20049;-77
2023/09/21 03:11:19;;;;;;;18.40;11.73;;;;;;;;;;5022373;28;20049;-76
2023/09/21 03:14:04;;;;;;;26.60;12.32;;;;;;;;;;5016802;28;20488;-76
2023/09/21 03:16:49;;;;;;;17.88;12.18;;;;;;;;;;5021851;28;20045;-76
2023/09/21 03:19:35;;;;;;;21.95;11.93;;;;;;;;;;5022514;28;20038;-77
2023/09/21 03:22:21;;;;;;;18.20;12.02;;;;;;;;;;5020828;28;20050;-77
2023/09/21 03:25:11;;;;;;;22.50;11.82;;;;;;;;;;5022145;28;20050;-77
2023/09/21 03:27:57;;;;;;;23.15;11.45;;;;;;;;;;5022151;28;20038;-77
2023/09/21 03:30:47;;;;;;;18.25;12.30;;;;;;;;;;5022135;28;20034;-78
2023/09/21 03:33:32;;;;;;;24.92;12.80;;;;;;;;;;5022307;28;20476;-78
2023/09/21 03:36:17;;;;;;;21.55;13.35;;;;;;;;;;5021386;28;20403;-78
2023/09/21 03:39:11;;;;;;;17.98;12.52;;;;;;;;;;5021489;28;20042;-79
2023/09/21 03:41:57;;;;;;;26.00;13.23;;;;;;;;;;5016040;28;20045;-79
2023/09/21 03:44:42;;;;;;;23.15;12.98;;;;;;;;;;5021743;28;20041;-78
2023/09/21 03:47:28;;;;;;;19.05;12.30;;;;;;;;;;5022352;28;20472;-78
2023/09/21 03:50:15;;;;;;;25.58;12.93;;;;;;;;;;5021761;28;20033;-78
2023/09/21 03:53:00;;;;;;;20.42;12.30;;;;;;;;;;5021003;28;20038;-78
2023/09/21 03:55:46;;;;;;;19.15;12.25;;;;;;;;;;5021251;28;20049;-77
2023/09/21 03:58:31;;;;;;;23.20;13.27;;;;;;;;;;5021220;28;20402;-78
2023/09/21 04:01:17;;;;;;;28.20;13.35;;;;;;;;;;5021527;28;20061;-77
2023/09/21 04:04:09;;;;;;;19.05;11.82;;;;;;;;;;5015373;28;20034;-77
2023/09/21 04:06:56;;;;;;;20.95;12.23;;;;;;;;;;5021251;28;20054;-77
2023/09/21 04:09:41;;;;;;;20.20;12.48;;;;;;;;;;5022291;28;20041;-78
2023/09/21 04:12:27;;;;;;;18.75;12.02;;;;;;;;;;5015618;28;20045;-78
2023/09/21 04:15:13;;;;;;;20.65;12.20;;;;;;;;;;5021176;28;20034;-77
2023/09/21 04:17:59;;;;;;;21.73;13.13;;;;;;;;;;5020925;28;20046;-77
2023/09/21 04:20:45;;;;;;;19.65;12.35;;;;;;;;;;5020928;28;20042;-77
2023/09/21 04:23:30;;;;;;;29.17;13.35;;;;;;;;;;5016101;28;20050;-77
2023/09/21 04:26:16;;;;;;;21.00;13.45;;;;;;;;;;5020972;28;20045;-78
2023/09/21 04:29:03;;;;;;;22.60;13.02;;;;;;;;;;5020913;28;20480;-77
2023/09/21 04:31:48;;;;;;;21.05;13.02;;;;;;;;;;5015427;28;20045;-77
2023/09/21 04:34:34;;;;;;;23.77;14.45;;;;;;;;;;5015753;28;20062;-77
2023/09/21 04:37:19;;;;;;;22.65;12.98;;;;;;;;;;5020524;28;20399;-78
2023/09/21 04:40:09;;;;;;;23.55;13.35;;;;;;;;;;5020430;28;20387;-78
2023/09/21 04:42:57;;;;;;;26.52;14.02;;;;;;;;;;5020247;28;20046;-77
2023/09/21 04:45:47;;;;;;;25.73;13.73;;;;;;;;;;5020066;28;20495;-78
2023/09/21 04:48:39;;;;;;;23.17;14.07;;;;;;;;;;5020418;28;20046;-77
2023/09/21 04:51:24;;;;;;;24.17;14.38;;;;;;;;;;5020214;28;20045;-77
2023/09/21 04:54:10;;;;;;;21.45;13.48;;;;;;;;;;5020170;28;20067;-77
2023/09/21 04:56:55;;;;;;;24.02;13.07;;;;;;;;;;5020018;28;20042;-78
2023/09/21 04:59:41;;;;;;;20.65;13.90;;;;;;;;;;5014356;28;20054;-78
2023/09/21 05:02:27;;;;;;;25.40;13.63;;;;;;;;;;5005907;28;20407;-78
2023/09/21 05:05:14;;;;;;;20.98;13.27;;;;;;;;;;5014454;28;20050;-78
2023/09/21 05:07:59;;;;;;;23.42;13.00;;;;;;;;;;5019585;28;20042;-78
2023/09/21 05:10:48;;;;;;;24.05;13.25;;;;;;;;;;5019744;28;20034;-78
2023/09/21 05:13:33;;;;;;;28.88;14.00;;;;;;;;;;5014167;28;20049;-79
2023/09/21 05:16:25;;;;;;;26.65;12.98;;;;;;;;;;5013814;28;20046;-78
2023/09/21 05:19:12;;;;;;;21.58;12.75;;;;;;;;;;5020791;28;20049;-79
2023/09/21 05:21:59;;;;;;;17.80;13.02;;;;;;;;;;5018169;28;20049;-77
2023/09/21 05:24:44;;;;;;;21.75;12.85;;;;;;;;;;5012412;28;20054;-77
2023/09/21 05:27:30;;;;;;;24.80;13.07;;;;;;;;;;5012195;28;20492;-79
2023/09/21 05:30:19;;;;;;;22.35;13.35;;;;;;;;;;5013095;28;20230;-76
2023/09/21 05:33:05;;;;;;;26.98;14.02;;;;;;;;;;5014288;28;20045;-76
2023/09/21 05:35:54;;;;;;;22.23;12.52;;;;;;;;;;5014077;28;20046;-76
2023/09/21 05:38:39;;;;;;;21.70;13.10;;;;;;;;;;5015230;28;20050;-82
2023/09/21 05:41:27;;;;;;;20.92;13.05;;;;;;;;;;5019635;28;20046;-81
2023/09/21 05:44:21;;;;;;;27.38;13.20;;;;;;;;;;5013934;28;20046;-76
2023/09/21 05:47:06;;;;;;;21.73;12.45;;;;;;;;;;5020967;28;20046;-77
2023/09/21 05:49:51;;;;;;;27.50;13.00;;;;;;;;;;5014061;28;20488;-77
2023/09/21 05:52:38;;;;;;;24.15;12.75;;;;;;;;;;5014126;28;20046;-77
2023/09/21 05:55:23;;;;;;;20.85;12.40;;;;;;;;;;5020578;28;20050;-80
2023/09/21 05:58:09;;;;;;;31.75;15.57;;;;;;;;;;5014458;28;20041;-77
2023/09/21 06:00:54;;;;;;;21.00;13.48;;;;;;;;;;5014078;28;20046;-78
2023/09/21 06:03:41;;;;;;;32.05;16.25;;;;;;;;;;5013704;28;20487;-78
2023/09/21 06:06:30;;;;;;;33.10;18.90;;;;;;;;;;5013831;28;20053;-77
2023/09/21 06:09:19;;;;;;;26.13;15.63;;;;;;;;;;5014701;28;20042;-77
2023/09/21 06:12:10;;;;;;;27.23;13.35;;;;;;;;;;5020522;28;20038;-77
2023/09/21 06:14:58;;;;;;;31.63;13.52;;;;;;;;;;5013971;28;20042;-76
2023/09/21 06:17:43;;;;;;;19.88;13.15;;;;;;;;;;5020338;28;20054;-77
2023/09/21 06:20:29;;;;;;;26.13;14.52;;;;;;;;;;5020709;28;20046;-76
2023/09/21 06:23:17;;;;;;;30.30;13.95;;;;;;;;;;5013430;28;20050;-76
2023/09/21 06:26:03;;;;;;;24.38;14.70;;;;;;;;;;5013606;28;20045;-78
2023/09/21 06:28:49;;;;;;;24.52;15.15;;;;;;;;;;5014030;28;20046;-77
2023/09/21 06:31:34;;;;;;;20.67;13.75;;;;;;;;;;5013551;28;20038;-77
2023/09/21 06:34:22;;;;;;;24.17;14.73;;;;;;;;;;5022622;28;20042;-77
2023/09/21 06:37:08;;;;;;;23.58;15.27;;;;;;;;;;5021198;28;20041;-76
2023/09/21 06:39:55;;;;;;;25.38;15.38;;;;;;;;;;5013756;28;20042;-80
2023/09/21 06:42:41;;;;;;;34.35;17.08;;;;;;;;;;5016940;28;20041;-78
2023/09/21 06:45:31;;;;;;;23.73;14.82;;;;;;;;;;5016999;28;20041;-78
2023/09/21 06:48:16;;;;;;;25.17;14.32;;;;;;;;;;5023920;28;20057;-77
2023/09/21 06:51:03;;;;;;;23.45;12.68;;;;;;;;;;5017306;28;20042;-78
2023/09/21 06:53:48;;;;;;;20.15;12.38;;;;;;;;;;5017190;28;20511;-77
2023/09/21 06:56:33;;;;;;;18.75;12.15;;;;;;;;;;5016993;28;20037;-78
2023/09/21 06:59:19;;;;;;;22.20;12.75;;;;;;;;;;5020503;28;20049;-76
2023/09/21 07:02:05;;;;;;;20.85;11.23;;;;;;;;;;5027419;28;20045;-77
2023/09/21 07:04:50;;;;;;;21.92;12.23;;;;;;;;;;5019742;28;20042;-77
2023/09/21 07:07:36;;;;;;;20.77;12.23;;;;;;;;;;5018850;28;20046;-77
2023/09/21 07:10:21;;;;;;;22.67;14.57;;;;;;;;;;5025050;28;20042;-76
2023/09/21 07:13:08;;;;;;;23.08;10.75;;;;;;;;;;5018633;28;20483;-75
2023/09/21 07:15:54;;;;;;;18.30;11.55;;;;;;;;;;5018118;28;20033;-78
2023/09/21 07:18:39;;;;;;;23.58;11.27;;;;;;;;;;5018903;28;20037;-76
2023/09/21 07:21:26;;;;;;;34.58;17.80;;;;;;;;;;5017163;28;20492;-77
2023/09/21 07:24:11;;;;;;;30.02;17.33;;;;;;;;;;5015881;28;20050;-75
2023/09/21 07:26:57;;;;;;;16.30;11.52;;;;;;;;;;5016435;28;20061;-75
2023/09/21 07:29:42;;;;;;;22.05;10.93;;;;;;;;;;5016790;28;20053;-79
2023/09/21 07:32:29;;;;;;;23.98;10.73;;;;;;;;;;5018856;28;20053;-75
2023/09/21 07:35:15;;;;;;;23.92;12.77;;;;;;;;;;5022907;28;20041;-76
2023/09/21 07:38:00;;;;;;;32.67;18.60;;;;;;;;;;5016334;28;20046;-76
2023/09/21 07:40:46;;;;;;;21.60;13.30;;;;;;;;;;5016362;28;20492;-76
2023/09/21 07:43:31;;;;;;;30.98;12.75;;;;;;;;;;5016044;28;20046;-76
2023/09/21 07:46:17;;;;;;;21.20;11.20;;;;;;;;;;5022480;28;20054;-76
2023/09/21 07:49:04;;;;;;;21.33;10.65;;;;;;;;;;5022489;28;20042;-78
2023/09/21 07:51:50;;;;;;;26.85;11.57;;;;;;;;;;5023116;28;20049;-78
2023/09/21 07:54:36;;;;;;;21.90;12.73;;;;;;;;;;5022397;28;20046;-76
2023/09/21 07:57:21;;;;;;;18.95;11.60;;;;;;;;;;5015778;28;20483;-76
2023/09/21 08:00:13;;;;;;;19.13;11.02;;;;;;;;;;5015715;28;20053;-76
2023/09/21 08:02:58;;;;;;;26.05;12.30;;;;;;;;;;5015528;28;20037;-76
2023/09/21 08:05:44;;;;;;;23.20;11.55;;;;;;;;;;5015828;28;20050;-76
2023/09/21 08:08:29;;;;;;;21.17;11.98;;;;;;;;;;5015812;28;20471;-76
2023/09/21 08:11:15;;;;;;;27.52;11.45;;;;;;;;;;5015838;28;20042;-76
2023/09/21 08:14:02;;;;;;;22.35;12.25;;;;;;;;;;5015422;28;20050;-77
2023/09/21 08:16:47;;;;;;;22.40;12.05;;;;;;;;;;5021729;28;20041;-76
2023/09/21 08:19:35;;;;;;;25.98;11.40;;;;;;;;;;5015488;28;20045;-76
2023/09/21 08:22:21;;;;;;;24.67;12.30;;;;;;;;;;5014830;28;20034;-76
2023/09/21 08:25:08;;;;;;;21.95;10.98;;;;;;;;;;5022045;28;20483;-76
2023/09/21 08:27:55;;;;;;;16.45;10.38;;;;;;;;;;5015099;28;20042;-77
2023/09/21 08:30:41;;;;;;;21.52;10.63;;;;;;;;;;5015055;28;20054;-76
2023/09/21 08:33:27;;;;;;;24.77;12.23;;;;;;;;;;5015431;28;20057;-77
2023/09/21 08:36:15;;;;;;;24.30;10.98;;;;;;;;;;5014755;28;20045;-76
2023/09/21 08:39:02;;;;;;;23.85;10.95;;;;;;;;;;5021772;28;20049;-77
2023/09/21 08:41:49;;;;;;;25.05;13.68;;;;;;;;;;5021462;28;20054;-76
2023/09/21 08:44:34;;;;;;;17.70;10.95;;;;;;;;;;5021367;28;20042;-75
2023/09/21 08:47:20;;;;;;;35.33;15.48;;;;;;;;;;5014931;28;20046;-75
2023/09/21 08:50:10;;;;;;;22.73;12.82;;;;;;;;;;5015006;28;20050;-76
2023/09/21 08:52:58;;;;;;;23.27;12.77;;;;;;;;;;5015224;28;20041;-76
2023/09/21 08:55:48;;;;;;;21.25;10.93;;;;;;;;;;5014364;28;20042;-76
2023/09/21 08:58:37;;;;;;;19.05;10.82;;;;;;;;;;5014835;28;20492;-76
2023/09/21 09:01:23;;;;;;;25.50;13.15;;;;;;;;;;5014786;28;20383;-76
2023/09/21 09:04:09;;;;;;;20.75;11.07;;;;;;;;;;5013880;28;20046;-76
2023/09/21 09:06:54;;;;;;;27.05;11.27;;;;;;;;;;5014932;28;20041;-74
2023/09/21 09:09:39;;;;;;;20.05;12.32;;;;;;;;;;5014342;28;20049;-76
2023/09/21 09:12:25;;;;;;;20.00;14.60;;;;;;;;;;5014359;28;20038;-75
2023/09/21 09:15:11;;;;;;;19.10;9.23;;;;;;;;;;5014528;28;20037;-78
2023/09/21 09:18:05;;;;;;;18.20;9.18;;;;;;;;;;5014132;28;20427;-77
2023/09/21 09:20:51;;;;;;;;;;;;;;;;;;5021553;28;20046;-75
2023/09/21 09:23:39;;;;;;;19.55;9.32;;;;;;;;;;5013228;28;19918;-75
2023/09/21 09:26:25;;;;;;;24.17;9.52;;;;;;;;;;5012940;28;20042;-76
2023/09/21 09:29:15;;;;;;;18.30;9.70;;;;;;;;;;5014523;28;20050;-77
2023/09/21 09:32:05;;;;;;;26.55;12.65;;;;;;;;;;5014257;28;20037;-77
2023/09/21 09:34:52;;;;;;;21.30;12.45;;;;;;;;;;5014300;28;20033;-78
2023/09/21 09:37:37;;;;;;;25.15;10.05;;;;;;;;;;5013811;28;20038;-76
2023/09/21 09:40:25;;;;;;;24.95;10.00;;;;;;;;;;5020931;28;20050;-75
2023/09/21 09:43:15;;;;;;;25.08;11.25;;;;;;;;;;5014147;28;20042;-75
2023/09/21 09:46:04;;;;;;;17.45;9.02;;;;;;;;;;5013898;28;20053;-74
2023/09/21 09:48:51;;;;;;;15.48;8.65;;;;;;;;;;5014125;28;20484;-74
2023/09/21 09:51:41;;;;;;;20.65;8.77;;;;;;;;;;5020331;28;20038;-73
2023/09/21 09:54:29;;;;;;;19.60;8.07;;;;;;;;;;5013899;28;20395;-76
2023/09/21 09:57:16;;;;;;;11.77;7.28;;;;;;;;;;5013568;28;20041;-77
2023/09/21 10:00:13;;;;;;;15.35;7.57;;;;;;;;;;5020643;28;20395;-75
2023/09/21 10:02:58;;;;;;;18.65;7.32;;;;;;;;;;5014114;28;20487;-76
2023/09/21 10:05:46;;;;;;;15.23;7.70;;;;;;;;;;5014027;28;20071;-76
2023/09/21 10:08:32;;;;;;;22.90;8.25;;;;;;;;;;5013427;28;20046;-77
2023/09/21 10:11:18;;;;;;;22.55;7.97;;;;;;;;;;5013792;28;20050;-76
2023/09/21 10:14:07;;;;;;;15.63;6.82;;;;;;;;;;5013923;28;20046;-77
2023/09/21 10:16:54;;;;;;;14.48;6.13;;;;;;;;;;5022743;28;20391;-77
2023/09/21 10:19:43;;;;;;;14.05;6.00;;;;;;;;;;5024336;28;20042;-77
2023/09/21 10:22:28;;;;;;;14.88;8.90;;;;;;;;;;5017379;28;20046;-76
2023/09/21 10:25:18;;;;;;;13.75;6.68;;;;;;;;;;5017830;28;20045;-78
2023/09/21 10:28:28;;;;;;;11.10;6.22;;;;;;;;;;5017729;28;20396;-77
2023/09/21 10:31:22;;;;;;;16.45;5.80;;;;;;;;;;5023863;28;20053;-77
2023/09/21 10:34:16;;;;;;;14.15;5.90;;;;;;;;;;5017240;28;20057;-76
2023/09/21 10:37:10;;;;;;;11.90;5.70;;;;;;;;;;5016765;28;20484;-75
2023/09/21 10:39:58;;;;;;;11.67;5.73;;;;;;;;;;5024087;28;20499;-75
2023/09/21 10:42:44;;;;;;;13.85;5.75;;;;;;;;;;5023771;28;20034;-76
2023/09/21 10:45:55;;;;;;;12.40;5.72;;;;;;;;;;5017121;28;20041;-77
2023/09/21 10:48:41;;;;;;;9.13;5.55;;;;;;;;;;5017564;28;20053;-76
2023/09/21 10:51:28;;;;;;;13.73;6.60;;;;;;;;;;5016774;28;20041;-76
2023/09/21 10:54:14;;;;;;;13.23;6.60;;;;;;;;;;5016874;28;20038;-76
2023/09/21 10:57:00;;;;;;;12.30;5.57;;;;;;;;;;5016392;28;20491;-77
2023/09/21 10:59:47;;;;;;;12.68;6.00;;;;;;;;;;5016671;28;20050;-76
2023/09/21 11:02:35;;;;;;;16.15;5.75;;;;;;;;;;5016297;28;20109;-75
2023/09/21 11:05:21;;;;;;;14.05;6.80;;;;;;;;;;5016475;28;20042;-77
2023/09/21 11:08:08;;;;;;;10.05;5.70;;;;;;;;;;5023370;28;20046;-75
2023/09/21 11:10:55;;;;;;;12.45;5.10;;;;;;;;;;5023045;28;20042;-75
2023/09/21 11:13:40;;;;;;;13.57;6.55;;;;;;;;;;5022794;28;20050;-77
2023/09/21 11:16:26;;;;;;;10.27;5.50;;;;;;;;;;5016122;28;20038;-77
2023/09/21 11:19:12;;;;;;;16.50;6.32;;;;;;;;;;5016128;28;20042;-77
2023/09/21 11:22:01;;;;;;;17.80;7.15;;;;;;;;;;5016607;28;20041;-75
2023/09/21 11:24:47;;;;;;;12.07;7.25;;;;;;;;;;5022147;28;20415;-77
2023/09/21 11:27:32;;;;;;;17.73;7.40;;;;;;;;;;5015671;28;20399;-77
2023/09/21 11:30:18;;;;;;;28.17;12.80;;;;;;;;;;5016204;28;20487;-76
2023/09/21 11:33:04;;;;;;;21.92;10.10;;;;;;;;;;5016061;28;20038;-78
2023/09/21 11:35:51;;;;;;;19.02;6.22;;;;;;;;;;5022829;28;20042;-79
2023/09/21 11:38:37;;;;;;;18.50;6.35;;;;;;;;;;5016118;28;20049;-80
2023/09/21 11:41:23;;;;;;;11.75;5.63;;;;;;;;;;5015825;28;20042;-78
2023/09/21 11:44:10;;;;;;;20.13;7.75;;;;;;;;;;5016203;28;20046;-79
2023/09/21 11:47:01;;;;;;;16.83;7.30;;;;;;;;;;5015743;28;20045;-79
2023/09/21 11:49:52;;;;;;;13.05;6.30;;;;;;;;;;5008045;28;20049;-76
2023/09/21 11:52:38;;;;;;;11.82;6.47;;;;;;;;;;5015579;28;20042;-76
2023/09/21 11:55:28;;;;;;;19.23;6.68;;;;;;;;;;5015789;28;20041;-76
2023/09/21 11:58:15;;;;;;;14.88;6.13;;;;;;;;;;5015364;28;20041;-76
2023/09/21 12:03:52;;;;;;;15.20;5.88;;;;;;;;;;5015539;28;20045;-76
2023/09/21 12:06:37;;;;;;;13.55;6.00;;;;;;;;;;5015714;28;20046;-75
2023/09/21 12:09:23;;;;;;;15.80;6.38;;;;;;;;;;5022339;28;20041;-76
2023/09/21 12:12:12;;;;;;;14.85;6.70;;;;;;;;;;5022261;28;20053;-76
2023/09/21 12:14:57;;;;;;;19.63;7.00;;;;;;;;;;5020888;28;20038;-76
2023/09/21 12:17:44;;;;;;;14.20;5.75;;;;;;;;;;5015046;28;20045;-75
2023/09/21 12:20:29;;;;;;;14.68;5.70;;;;;;;;;;5014345;28;20402;-76
2023/09/21 12:23:15;;;;;;;15.73;7.10;;;;;;;;;;5014785;28;20041;-76
2023/09/21 12:26:01;;;;;;;10.43;5.78;;;;;;;;;;5015510;28;20037;-76
2023/09/21 12:28:47;;;;;;;19.48;7.28;;;;;;;;;;5021792;28;20054;-75
2023/09/21 12:31:32;;;;;;;27.02;6.93;;;;;;;;;;5015532;28;20038;-76
2023/09/21 12:34:19;;;;;;;14.35;6.25;;;;;;;;;;5015048;28;20041;-75
2023/09/21 12:37:05;;;;;;;12.35;5.20;;;;;;;;;;5015010;28;20391;-77
2023/09/21 12:39:50;;;;;;;15.00;6.70;;;;;;;;;;5014880;28;20061;-75
2023/09/21 12:42:35;;;;;;;13.52;5.93;;;;;;;;;;5014039;28;20049;-77
2023/09/21 12:45:21;;;;;;;18.85;8.15;;;;;;;;;;5015368;28;20387;-77
2023/09/21 12:48:08;;;;;;;13.38;6.32;;;;;;;;;;5014768;28;20053;-76
2023/09/21 12:50:53;;;;;;;11.80;6.05;;;;;;;;;;5014842;28;20042;-77
2023/09/21 12:53:39;;;;;;;14.25;7.07;;;;;;;;;;5014967;28;20058;-76
2023/09/21 12:56:24;;;;;;;15.90;6.10;;;;;;;;;;5014451;28;20046;-76
2023/09/21 12:59:10;;;;;;;21.13;6.97;;;;;;;;;;5014989;28;20046;-76
2023/09/21 13:01:56;;;;;;;10.63;5.40;;;;;;;;;;5014689;28;20041;-76
2023/09/21 13:04:42;;;;;;;21.98;7.25;;;;;;;;;;5014203;28;20045;-76
2023/09/21 13:07:27;;;;;;;17.58;6.55;;;;;;;;;;5014882;28;20042;-76
2023/09/21 13:10:20;;;;;;;17.02;6.80;;;;;;;;;;5014513;28;20491;-77
2023/09/21 13:13:05;;;;;;;15.00;6.50;;;;;;;;;;5014562;28;20384;-76
2023/09/21 13:15:50;;;;;;;17.35;5.68;;;;;;;;;;5014316;28;20050;-75
2023/09/21 13:18:36;;;;;;;12.30;5.65;;;;;;;;;;5019334;28;20049;-78
2023/09/21 13:21:22;;;;;;;20.10;8.50;;;;;;;;;;5014475;28;20053;-76
2023/09/21 13:24:08;;;;;;;20.42;6.88;;;;;;;;;;5013704;28;20050;-78
2023/09/21 13:26:54;;;;;;;17.52;6.97;;;;;;;;;;5014224;28;20058;-77
2023/09/21 13:29:40;;;;;;;11.27;5.95;;;;;;;;;;5021138;28;20050;-78
2023/09/21 13:32:26;;;;;;;16.95;6.18;;;;;;;;;;5013911;28;20050;-74
2023/09/21 13:35:12;;;;;;;18.15;6.95;;;;;;;;;;5013987;28;20042;-75
2023/09/21 13:37:58;;;;;;;18.85;6.43;;;;;;;;;;5020369;28;20038;-75
2023/09/21 13:40:43;;;;;;;17.30;6.47;;;;;;;;;;5014232;28;20042;-75
2023/09/21 13:43:28;;;;;;;15.20;6.43;;;;;;;;;;5014336;28;20038;-75
2023/09/21 13:46:14;;;;;;;12.68;6.25;;;;;;;;;;5014103;28;20046;-76
2023/09/21 13:49:00;;;;;;;16.85;6.50;;;;;;;;;;5013376;28;20054;-76
2023/09/21 13:51:46;;;;;;;16.67;6.45;;;;;;;;;;5013555;28;20395;-76
2023/09/21 13:54:32;;;;;;;23.40;6.82;;;;;;;;;;5014197;28;20045;-76
2023/09/21 13:57:18;;;;;;;12.20;5.70;;;;;;;;;;5013472;28;20046;-76
2023/09/21 14:00:07;;;;;;;16.20;6.60;;;;;;;;;;5013776;28;20050;-75
2023/09/21 14:02:56;;;;;;;17.63;6.05;;;;;;;;;;5013548;28;20041;-73
2023/09/21 14:05:42;;;;;;;14.82;5.90;;;;;;;;;;5014065;28;20041;-73
2023/09/21 14:08:27;;;;;;;12.43;5.35;;;;;;;;;;5013903;28;20046;-73
2023/09/21 14:11:13;;;;;;;18.25;5.70;;;;;;;;;;5014108;28;20049;-74
2023/09/21 14:14:00;;;;;;;20.00;6.70;;;;;;;;;;5013858;28;20045;-74
2023/09/21 14:16:46;;;;;;;16.50;6.40;;;;;;;;;;5013734;28;20038;-73
2023/09/21 14:19:31;;;;;;;14.85;5.97;;;;;;;;;;5013387;28;20050;-73
2023/09/21 14:22:16;;;;;;;15.63;5.55;;;;;;;;;;5013681;28;20042;-73
2023/09/21 14:25:02;;;;;;;14.98;5.40;;;;;;;;;;5020045;28;20034;-77
2023/09/21 14:27:48;;;;;;;14.85;6.20;;;;;;;;;;5013728;28;20046;-76
2023/09/21 14:30:33;;;;;;;22.17;5.78;;;;;;;;;;5020266;28;20041;-77
2023/09/21 14:33:20;;;;;;;12.98;5.47;;;;;;;;;;5020276;28;20391;-76
2023/09/21 14:36:05;;;;;;;18.20;7.00;;;;;;;;;;5013748;28;20034;-77
2023/09/21 14:38:51;;;;;;;18.60;9.45;;;;;;;;;;5019970;28;20042;-77
2023/09/21 14:41:37;;;;;;;19.60;8.23;;;;;;;;;;5013365;28;20054;-77
2023/09/21 14:44:22;;;;;;;12.05;5.97;;;;;;;;;;5020378;28;20046;-75
2023/09/21 14:47:07;;;;;;;14.38;5.65;;;;;;;;;;5013141;28;20050;-76
2023/09/21 14:49:53;;;;;;;12.10;6.10;;;;;;;;;;5013576;28;20042;-74
2023/09/21 14:52:38;;;;;;;17.73;6.60;;;;;;;;;;5013718;28;20046;-76
2023/09/21 14:55:23;;;;;;;16.02;6.13;;;;;;;;;;5012384;28;20054;-77
2023/09/21 14:58:10;;;;;;;19.60;5.97;;;;;;;;;;5018906;28;20041;-76
2023/09/21 15:00:56;;;;;;;12.95;5.95;;;;;;;;;;5013214;28;20515;-77
2023/09/21 15:03:41;;;;;;;16.60;5.60;;;;;;;;;;5014680;28;20041;-75
2023/09/21 15:06:28;;;;;;;15.88;5.95;;;;;;;;;;5016828;28;20046;-76
2023/09/21 15:09:14;;;;;;;13.10;5.22;;;;;;;;;;5015319;28;20471;-76
2023/09/21 15:12:00;;;;;;;16.10;6.22;;;;;;;;;;5016054;28;20050;-77
2023/09/21 15:14:45;;;;;;;13.38;5.57;;;;;;;;;;5022734;28;20050;-77
2023/09/21 15:17:31;;;;;;;24.55;6.10;;;;;;;;;;5022612;28;20053;-78
2023/09/21 15:20:16;;;;;;;18.67;5.65;;;;;;;;;;5016460;28;20046;-76
2023/09/21 15:23:02;;;;;;;14.85;6.00;;;;;;;;;;5014968;28;20042;-75
2023/09/21 15:25:48;;;;;;;15.82;5.57;;;;;;;;;;5016170;28;20045;-77
2023/09/21 15:28:34;;;;;;;15.45;5.95;;;;;;;;;;5015965;28;20050;-77
2023/09/21 15:31:19;;;;;;;14.65;5.32;;;;;;;;;;5022662;28;20046;-78
2023/09/21 15:34:05;;;;;;;21.55;6.15;;;;;;;;;;5022522;28;20041;-77
2023/09/21 15:36:50;;;;;;;13.82;5.93;;;;;;;;;;5014671;28;20050;-78
2023/09/21 15:39:36;;;;;;;16.85;5.97;;;;;;;;;;5022878;28;20057;-77
2023/09/21 15:42:21;;;;;;;17.35;6.10;;;;;;;;;;5015353;28;20049;-76
2023/09/21 15:45:07;;;;;;;13.30;5.78;;;;;;;;;;5016053;28;20037;-76
2023/09/21 15:47:53;;;;;;;15.77;5.97;;;;;;;;;;5015817;28;20487;-76
2023/09/21 15:50:40;;;;;;;19.75;6.93;;;;;;;;;;5015615;28;20050;-77
2023/09/21 15:53:29;;;;;;;13.98;6.40;;;;;;;;;;5022811;28;20046;-76
2023/09/21 15:56:14;;;;;;;15.80;6.55;;;;;;;;;;5014751;28;20049;-75
2023/09/21 15:59:00;;;;;;;20.38;6.60;;;;;;;;;;5015342;28;20058;-76
2023/09/21 16:01:46;;;;;;;17.50;6.18;;;;;;;;;;5022486;28;20042;-76
2023/09/21 16:04:31;;;;;;;16.95;6.47;;;;;;;;;;5015937;28;20038;-76
2023/09/21 16:07:16;;;;;;;15.63;6.75;;;;;;;;;;5022205;28;20049;-77
2023/09/21 16:10:04;;;;;;;18.48;6.22;;;;;;;;;;5021905;28;20487;-78
2023/09/21 16:12:49;;;;;;;16.77;5.95;;;;;;;;;;5015503;28;20042;-76
2023/09/21 16:15:35;;;;;;;19.10;6.32;;;;;;;;;;5015267;28;20053;-75
2023/09/21 16:18:20;;;;;;;19.15;6.18;;;;;;;;;;5021746;28;20037;-76
2023/09/21 16:21:06;;;;;;;14.38;6.22;;;;;;;;;;5015277;28;20046;-76